sensor_id;sensor_type;location;lat;lon;timestamp;pressure;altitude;pressure_sealevel;temperature
48854;BMP280;34673;52.808;17.856;2023-04-01T00:01:30;98417.06;;;9.40
48854;BMP280;34673;52.808;17.856;2023-04-01T00:03:57;98409.47;;;9.36
48854;BMP280;34673;52.808;17.856;2023-04-01T00:06:24;98411.88;;;9.40
48854;BMP280;34673;52.808;17.856;2023-04-01T00:08:51;98410.25;;;9.38
48854;BMP280;34673;52.808;17.856;2023-04-01T00:11:20;98413.81;;;9.33
48854;BMP280;34673;52.808;17.856;2023-04-01T00:13:48;98406.25;;;9.29
48854;BMP280;34673;52.808;17.856;2023-04-01T00:16:15;98415.63;;;9.31
48854;BMP280;34673;52.808;17.856;2023-04-01T00:18:49;98405.31;;;9.31
48854;BMP280;34673;52.808;17.856;2023-04-01T00:21:17;98418.22;;;9.31
48854;BMP280;34673;52.808;17.856;2023-04-01T00:23:44;98417.38;;;9.31
48854;BMP280;34673;52.808;17.856;2023-04-01T00:26:11;98412.25;;;9.29
48854;BMP280;34673;52.808;17.856;2023-04-01T00:28:39;98408.00;;;9.28
48854;BMP280;34673;52.808;17.856;2023-04-01T00:31:08;98414.00;;;9.29
48854;BMP280;34673;52.808;17.856;2023-04-01T00:33:37;98401.25;;;9.24
48854;BMP280;34673;52.808;17.856;2023-04-01T00:36:14;98408.00;;;9.28
48854;BMP280;34673;52.808;17.856;2023-04-01T00:38:41;98392.03;;;9.17
48854;BMP280;34673;52.808;17.856;2023-04-01T00:41:10;98408.00;;;9.28
48854;BMP280;34673;52.808;17.856;2023-04-01T00:43:43;98409.78;;;9.26
48854;BMP280;34673;52.808;17.856;2023-04-01T00:46:11;98409.91;;;9.23
48854;BMP280;34673;52.808;17.856;2023-04-01T00:48:45;98399.69;;;9.20
48854;BMP280;34673;52.808;17.856;2023-04-01T00:51:27;98404.72;;;9.23
48854;BMP280;34673;52.808;17.856;2023-04-01T00:53:58;98402.91;;;9.25
48854;BMP280;34673;52.808;17.856;2023-04-01T00:56:37;98404.63;;;9.26
48854;BMP280;34673;52.808;17.856;2023-04-01T00:59:11;98396.19;;;9.21
48854;BMP280;34673;52.808;17.856;2023-04-01T01:01:40;98393.56;;;9.23
48854;BMP280;34673;52.808;17.856;2023-04-01T01:04:22;98402.16;;;9.23
48854;BMP280;34673;52.808;17.856;2023-04-01T01:09:38;98393.56;;;9.23
48854;BMP280;34673;52.808;17.856;2023-04-01T01:12:11;98394.41;;;9.23
48854;BMP280;34673;52.808;17.856;2023-04-01T01:14:58;98391.03;;;9.21
48854;BMP280;34673;52.808;17.856;2023-04-01T01:23:28;98389.44;;;9.17
48854;BMP280;34673;52.808;17.856;2023-04-01T01:37:04;98393.03;;;9.13
48854;BMP280;34673;52.808;17.856;2023-04-01T01:39:34;98396.53;;;9.12
48854;BMP280;34673;52.808;17.856;2023-04-01T01:42:05;98391.34;;;9.12
48854;BMP280;34673;52.808;17.856;2023-04-01T01:44:35;98387.97;;;9.10
48854;BMP280;34673;52.808;17.856;2023-04-01T01:47:05;98390.50;;;9.12
48854;BMP280;34673;52.808;17.856;2023-04-01T01:49:33;98387.97;;;9.10
48854;BMP280;34673;52.808;17.856;2023-04-01T01:52:02;98385.63;;;9.04
48854;BMP280;34673;52.808;17.856;2023-04-01T01:54:30;98379.66;;;9.02
48854;BMP280;34673;52.808;17.856;2023-04-01T01:57:07;98382.13;;;9.05
48854;BMP280;34673;52.808;17.856;2023-04-01T01:59:40;98389.88;;;9.05
48854;BMP280;34673;52.808;17.856;2023-04-01T02:02:14;98389.88;;;9.05
48854;BMP280;34673;52.808;17.856;2023-04-01T02:04:44;98391.66;;;9.03
48854;BMP280;34673;52.808;17.856;2023-04-01T02:07:22;98391.75;;;9.00
48854;BMP280;34673;52.808;17.856;2023-04-01T02:09:52;98386.59;;;9.00
48854;BMP280;34673;52.808;17.856;2023-04-01T02:12:19;98390.09;;;8.99
48854;BMP280;34673;52.808;17.856;2023-04-01T02:14:59;98391.75;;;9.00
48854;BMP280;34673;52.808;17.856;2023-04-01T02:17:29;98386.59;;;9.00
48854;BMP280;34673;52.808;17.856;2023-04-01T02:20:11;98390.91;;;8.99
48854;BMP280;34673;52.808;17.856;2023-04-01T02:22:44;98384.84;;;9.00
48854;BMP280;34673;52.808;17.856;2023-04-01T02:25:17;98391.66;;;9.03
48854;BMP280;34673;52.808;17.856;2023-04-01T02:27:46;98392.50;;;9.03
48854;BMP280;34673;52.808;17.856;2023-04-01T02:30:15;98377.94;;;9.01
48854;BMP280;34673;52.808;17.856;2023-04-01T02:32:44;98393.34;;;9.04
48854;BMP280;34673;52.808;17.856;2023-04-01T02:35:14;98388.28;;;9.01
48854;BMP280;34673;52.808;17.856;2023-04-01T02:37:42;98388.28;;;9.01
48854;BMP280;34673;52.808;17.856;2023-04-01T02:40:13;98391.88;;;8.97
48854;BMP280;34673;52.808;17.856;2023-04-01T02:42:41;98393.44;;;9.01
48854;BMP280;34673;52.808;17.856;2023-04-01T02:45:09;98396.00;;;9.01
48854;BMP280;34673;52.808;17.856;2023-04-01T02:47:37;98390.91;;;8.99
48854;BMP280;34673;52.808;17.856;2023-04-01T02:50:06;98388.28;;;9.01
48854;BMP280;34673;52.808;17.856;2023-04-01T02:52:33;98391.97;;;8.94
48854;BMP280;34673;52.808;17.856;2023-04-01T02:55:02;98403.75;;;9.01
48854;BMP280;34673;52.808;17.856;2023-04-01T02:57:29;98402.06;;;9.00
48854;BMP280;34673;52.808;17.856;2023-04-01T02:59:57;98400.28;;;9.02
48854;BMP280;34673;52.808;17.856;2023-04-01T03:02:24;98399.50;;;9.00
48854;BMP280;34673;52.808;17.856;2023-04-01T03:04:51;98402.06;;;9.00
48854;BMP280;34673;52.808;17.856;2023-04-01T03:07:18;98392.00;;;8.92
48854;BMP280;34673;52.808;17.856;2023-04-01T03:09:45;98405.59;;;8.97
48854;BMP280;34673;52.808;17.856;2023-04-01T03:12:12;98407.22;;;9.00
48854;BMP280;34673;52.808;17.856;2023-04-01T03:14:48;98407.22;;;9.00
48854;BMP280;34673;52.808;17.856;2023-04-01T03:17:16;98410.59;;;9.02
48854;BMP280;34673;52.808;17.856;2023-04-01T03:19:43;98408.91;;;9.01
48854;BMP280;34673;52.808;17.856;2023-04-01T03:22:11;98407.22;;;9.00
48854;BMP280;34673;52.808;17.856;2023-04-01T03:24:38;98397.03;;;8.97
48854;BMP280;34673;52.808;17.856;2023-04-01T03:27:05;98413.19;;;9.02
48854;BMP280;34673;52.808;17.856;2023-04-01T03:29:32;98407.22;;;9.00
48854;BMP280;34673;52.808;17.856;2023-04-01T03:32:00;98410.59;;;9.02
48854;BMP280;34673;52.808;17.856;2023-04-01T03:34:27;98413.22;;;9.00
48854;BMP280;34673;52.808;17.856;2023-04-01T03:36:54;98414.16;;;8.98
48854;BMP280;34673;52.808;17.856;2023-04-01T03:39:21;98410.81;;;8.96
48854;BMP280;34673;52.808;17.856;2023-04-01T03:41:49;98412.50;;;8.97
48854;BMP280;34673;52.808;17.856;2023-04-01T03:44:16;98420.25;;;8.95
48854;BMP280;34673;52.808;17.856;2023-04-01T03:46:47;98418.63;;;8.93
48854;BMP280;34673;52.808;17.856;2023-04-01T03:49:14;98421.13;;;8.96
48854;BMP280;34673;52.808;17.856;2023-04-01T03:51:42;98412.50;;;8.97
48854;BMP280;34673;52.808;17.856;2023-04-01T03:54:11;98421.97;;;8.96
48854;BMP280;34673;52.808;17.856;2023-04-01T03:56:38;98421.22;;;8.93
48854;BMP280;34673;52.808;17.856;2023-04-01T03:59:07;98430.66;;;8.94
48854;BMP280;34673;52.808;17.856;2023-04-01T04:01:34;98427.97;;;8.97
48854;BMP280;34673;52.808;17.856;2023-04-01T04:04:02;98422.91;;;8.94
48854;BMP280;34673;52.808;17.856;2023-04-01T04:06:29;98433.13;;;8.97
48854;BMP280;34673;52.808;17.856;2023-04-01T04:08:56;98439.94;;;8.98
48854;BMP280;34673;52.808;17.856;2023-04-01T04:11:25;98434.88;;;8.96
48854;BMP280;34673;52.808;17.856;2023-04-01T04:13:52;98439.94;;;8.98
48854;BMP280;34673;52.808;17.856;2023-04-01T04:16:22;98445.09;;;8.98
48854;BMP280;34673;52.808;17.856;2023-04-01T04:18:55;98443.34;;;9.00
48854;BMP280;34673;52.808;17.856;2023-04-01T04:21:22;98448.38;;;9.03
48854;BMP280;34673;52.808;17.856;2023-04-01T04:23:50;98444.94;;;9.04
48854;BMP280;34673;52.808;17.856;2023-04-01T04:26:19;98451.78;;;9.05
48854;BMP280;34673;52.808;17.856;2023-04-01T04:28:55;98446.72;;;9.02
48854;BMP280;34673;52.808;17.856;2023-04-01T04:31:24;98453.44;;;9.06
48854;BMP280;34673;52.808;17.856;2023-04-01T04:33:53;98460.31;;;9.07
48854;BMP280;34673;52.808;17.856;2023-04-01T04:36:21;98458.50;;;9.09
48854;BMP280;34673;52.808;17.856;2023-04-01T04:38:50;98434.03;;;8.96
48854;BMP280;34673;52.808;17.856;2023-04-01T04:41:18;98465.34;;;9.10
48854;BMP280;34673;52.808;17.856;2023-04-01T04:43:57;98450.81;;;9.07
48854;BMP280;34673;52.808;17.856;2023-04-01T04:46:25;98459.44;;;9.06
48854;BMP280;34673;52.808;17.856;2023-04-01T04:48:59;98462.09;;;9.05
48854;BMP280;34673;52.808;17.856;2023-04-01T04:51:26;98450.16;;;9.01
48854;BMP280;34673;52.808;17.856;2023-04-01T04:53:53;98473.97;;;9.09
48854;BMP280;34673;52.808;17.856;2023-04-01T04:56:29;98472.28;;;9.08
48854;BMP280;34673;52.808;17.856;2023-04-01T04:59:05;98476.56;;;9.09
48854;BMP280;34673;52.808;17.856;2023-04-01T05:01:48;98469.03;;;9.03
48854;BMP280;34673;52.808;17.856;2023-04-01T05:04:15;98477.56;;;9.05
48854;BMP280;34673;52.808;17.856;2023-04-01T05:06:43;98477.56;;;9.05
48854;BMP280;34673;52.808;17.856;2023-04-01T05:09:12;98477.56;;;9.05
48854;BMP280;34673;52.808;17.856;2023-04-01T05:11:39;98472.50;;;9.02
48854;BMP280;34673;52.808;17.856;2023-04-01T05:14:12;98471.66;;;9.01
48854;BMP280;34673;52.808;17.856;2023-04-01T05:16:40;98484.50;;;9.03
48854;BMP280;34673;52.808;17.856;2023-04-01T05:19:08;98488.81;;;9.02
48854;BMP280;34673;52.808;17.856;2023-04-01T05:21:35;98488.84;;;9.01
48854;BMP280;34673;52.808;17.856;2023-04-01T05:24:02;98488.06;;;8.99
48854;BMP280;34673;52.808;17.856;2023-04-01T05:26:30;98492.34;;;9.00
48854;BMP280;34673;52.808;17.856;2023-04-01T05:28:59;98487.22;;;8.98
48854;BMP280;34673;52.808;17.856;2023-04-01T05:31:26;98499.25;;;8.98
48854;BMP280;34673;52.808;17.856;2023-04-01T05:33:53;98491.53;;;8.98
48854;BMP280;34673;52.808;17.856;2023-04-01T05:36:21;98496.59;;;9.01
48854;BMP280;34673;52.808;17.856;2023-04-01T05:38:49;98504.38;;;8.99
48854;BMP280;34673;52.808;17.856;2023-04-01T05:41:18;98505.34;;;8.95
48854;BMP280;34673;52.808;17.856;2023-04-01T05:43:45;98500.28;;;8.94
48854;BMP280;34673;52.808;17.856;2023-04-01T05:46:31;98503.03;;;8.87
48854;BMP280;34673;52.808;17.856;2023-04-01T05:49:20;98503.41;;;8.75
48854;BMP280;34673;52.808;17.856;2023-04-01T05:51:48;98511.94;;;8.77
48854;BMP280;34673;52.808;17.856;2023-04-01T05:54:16;98515.47;;;8.75
48854;BMP280;34673;52.808;17.856;2023-04-01T05:56:45;98513.81;;;8.72
48854;BMP280;34673;52.808;17.856;2023-04-01T05:59:14;98521.66;;;8.69
48854;BMP280;34673;52.808;17.856;2023-04-01T06:01:41;98523.50;;;8.64
48854;BMP280;34673;52.808;17.856;2023-04-01T06:04:17;98524.44;;;8.61
48854;BMP280;34673;52.808;17.856;2023-04-01T06:06:45;98543.44;;;8.57
48854;BMP280;34673;52.808;17.856;2023-04-01T06:09:19;98537.53;;;8.54
48854;BMP280;34673;52.808;17.856;2023-04-01T06:29:24;98561.13;;;8.40
48854;BMP280;34673;52.808;17.856;2023-04-01T06:32:13;98563.72;;;8.38
48854;BMP280;34673;52.808;17.856;2023-04-01T06:34:55;98569.84;;;8.34
48854;BMP280;34673;52.808;17.856;2023-04-01T06:52:31;98586.78;;;8.12
48854;BMP280;34673;52.808;17.856;2023-04-01T06:55:40;98590.31;;;8.08
48854;BMP280;34673;52.808;17.856;2023-04-01T06:58:49;98585.25;;;8.05
48854;BMP280;34673;52.808;17.856;2023-04-01T07:01:27;98591.22;;;8.05
48854;BMP280;34673;52.808;17.856;2023-04-01T07:04:03;98590.38;;;8.05
48854;BMP280;34673;52.808;17.856;2023-04-01T07:06:39;98590.38;;;8.05
48854;BMP280;34673;52.808;17.856;2023-04-01T07:09:19;98600.59;;;8.08
48854;BMP280;34673;52.808;17.856;2023-04-01T07:12:28;98600.69;;;8.05
48854;BMP280;34673;52.808;17.856;2023-04-01T07:15:23;98607.69;;;7.99
48854;BMP280;34673;52.808;17.856;2023-04-01T07:17:56;98607.84;;;7.93
48854;BMP280;34673;52.808;17.856;2023-04-01T07:20:28;98617.25;;;7.94
48854;BMP280;34673;52.808;17.856;2023-04-01T07:23:04;98624.13;;;7.95
48854;BMP280;34673;52.808;17.856;2023-04-01T07:25:59;98614.75;;;7.91
48854;BMP280;34673;52.808;17.856;2023-04-01T07:28:33;98615.66;;;7.90
48854;BMP280;34673;52.808;17.856;2023-04-01T07:34:25;98621.66;;;7.89
48854;BMP280;34673;52.808;17.856;2023-04-01T07:37:15;98625.13;;;7.88
48854;BMP280;34673;52.808;17.856;2023-04-01T07:53:45;98652.56;;;7.89
48854;BMP280;34673;52.808;17.856;2023-04-01T07:59:06;98656.78;;;7.92
48854;BMP280;34673;52.808;17.856;2023-04-01T08:07:21;98664.16;;;8.06
48854;BMP280;34673;52.808;17.856;2023-04-01T08:13:24;98669.94;;;8.15
48854;BMP280;34673;52.808;17.856;2023-04-01T08:16:25;98647.13;;;8.02
48854;BMP280;34673;52.808;17.856;2023-04-01T08:21:50;98679.25;;;8.21
48854;BMP280;34673;52.808;17.856;2023-04-01T08:24:43;98681.81;;;8.23
48854;BMP280;34673;52.808;17.856;2023-04-01T08:27:33;98689.44;;;8.26
48854;BMP280;34673;52.808;17.856;2023-04-01T08:30:24;98686.88;;;8.26
48854;BMP280;34673;52.808;17.856;2023-04-01T08:32:58;98680.16;;;8.18
48854;BMP280;34673;52.808;17.856;2023-04-01T08:35:31;98698.22;;;8.17
48854;BMP280;34673;52.808;17.856;2023-04-01T08:38:14;98694.88;;;8.13
48854;BMP280;34673;52.808;17.856;2023-04-01T08:43:41;98709.69;;;8.05
48854;BMP280;34673;52.808;17.856;2023-04-01T09:01:41;98725.97;;;8.06
48854;BMP280;34673;52.808;17.856;2023-04-01T09:07:40;98729.44;;;8.05
48854;BMP280;34673;52.808;17.856;2023-04-01T09:18:57;98739.81;;;8.02
48854;BMP280;34673;52.808;17.856;2023-04-01T09:36:07;98776.06;;;7.92
48854;BMP280;34673;52.808;17.856;2023-04-01T09:42:06;98750.84;;;7.69
48854;BMP280;34673;52.808;17.856;2023-04-01T09:53:11;98796.94;;;7.80
48854;BMP280;34673;52.808;17.856;2023-04-01T09:59:01;98793.47;;;7.81
48854;BMP280;34673;52.808;17.856;2023-04-01T10:38:06;98826.22;;;8.15
48854;BMP280;34673;52.808;17.856;2023-04-01T10:40:59;98837.31;;;8.17
48854;BMP280;34673;52.808;17.856;2023-04-01T10:50:25;98836.47;;;8.16
48854;BMP280;34673;52.808;17.856;2023-04-01T10:59:31;98847.50;;;8.23
48854;BMP280;34673;52.808;17.856;2023-04-01T11:16:53;98860.84;;;8.40
48854;BMP280;34673;52.808;17.856;2023-04-01T11:19:56;98860.91;;;8.37
48854;BMP280;34673;52.808;17.856;2023-04-01T11:28:47;98874.41;;;8.49
48854;BMP280;34673;52.808;17.856;2023-04-01T11:31:44;98871.00;;;8.47
48854;BMP280;34673;52.808;17.856;2023-04-01T11:34:39;98877.94;;;8.45
48854;BMP280;34673;52.808;17.856;2023-04-01T11:40:14;98880.53;;;8.45
48854;BMP280;34673;52.808;17.856;2023-04-01T11:43:25;98884.88;;;8.42
48854;BMP280;34673;52.808;17.856;2023-04-01T11:46:27;98881.59;;;8.34
48854;BMP280;34673;52.808;17.856;2023-04-01T11:49:36;98884.03;;;8.40
48854;BMP280;34673;52.808;17.856;2023-04-01T11:52:30;98895.25;;;8.39
48854;BMP280;34673;52.808;17.856;2023-04-01T12:08:57;98914.09;;;8.41
48854;BMP280;34673;52.808;17.856;2023-04-01T12:16:54;98918.38;;;8.41
48854;BMP280;34673;52.808;17.856;2023-04-01T12:22:23;98914.09;;;8.38
48854;BMP280;34673;52.808;17.856;2023-04-01T12:27:53;98921.06;;;8.36
48854;BMP280;34673;52.808;17.856;2023-04-01T12:39:33;98945.09;;;8.35
48854;BMP280;34673;52.808;17.856;2023-04-01T12:48:10;98952.84;;;8.35
48854;BMP280;34673;52.808;17.856;2023-04-01T12:57:06;98960.91;;;8.20
48854;BMP280;34673;52.808;17.856;2023-04-01T13:09:50;98983.19;;;8.21
48854;BMP280;34673;52.808;17.856;2023-04-01T13:39:47;99011.44;;;8.26
48854;BMP280;34673;52.808;17.856;2023-04-01T13:42:25;99006.38;;;8.23
48854;BMP280;34673;52.808;17.856;2023-04-01T13:45:15;99013.22;;;8.22
48854;BMP280;34673;52.808;17.856;2023-04-01T13:50:34;99019.25;;;8.21
48854;BMP280;34673;52.808;17.856;2023-04-01T13:59:29;99026.91;;;8.24
48854;BMP280;34673;52.808;17.856;2023-04-01T14:05:24;99037.31;;;8.19
48854;BMP280;34673;52.808;17.856;2023-04-01T14:08:17;99036.47;;;8.19
48854;BMP280;34673;52.808;17.856;2023-04-01T14:17:02;99043.28;;;8.23
48854;BMP280;34673;52.808;17.856;2023-04-01T14:36:30;99065.50;;;8.27
48854;BMP280;34673;52.808;17.856;2023-04-01T14:50:36;99071.00;;;8.09
48854;BMP280;34673;52.808;17.856;2023-04-01T14:58:18;99077.22;;;7.98
48854;BMP280;34673;52.808;17.856;2023-04-01T15:03:54;99096.84;;;8.04
48854;BMP280;34673;52.808;17.856;2023-04-01T15:17:36;99117.47;;;8.03
48854;BMP280;34673;52.808;17.856;2023-04-01T15:23:03;99115.84;;;7.97
48854;BMP280;34673;52.808;17.856;2023-04-01T15:28:28;99117.69;;;7.90
48854;BMP280;34673;52.808;17.856;2023-04-01T15:31:09;99126.22;;;7.92
48854;BMP280;34673;52.808;17.856;2023-04-01T15:33:59;99126.28;;;7.89
48854;BMP280;34673;52.808;17.856;2023-04-01T15:39:42;99143.63;;;7.80
48854;BMP280;34673;52.808;17.856;2023-04-01T15:45:07;99147.16;;;7.74
48854;BMP280;34673;52.808;17.856;2023-04-01T15:47:52;99148.00;;;7.73
48854;BMP280;34673;52.808;17.856;2023-04-01T15:53:37;99156.84;;;7.57
48854;BMP280;34673;52.808;17.856;2023-04-01T16:12:41;99183.63;;;7.43
48854;BMP280;34673;52.808;17.856;2023-04-01T16:26:38;99204.47;;;7.25
48854;BMP280;34673;52.808;17.856;2023-04-01T16:29:27;99211.41;;;7.20
48854;BMP280;34673;52.808;17.856;2023-04-01T16:32:15;99212.34;;;7.11
48854;BMP280;34673;52.808;17.856;2023-04-01T16:34:53;99228.63;;;7.12
48854;BMP280;34673;52.808;17.856;2023-04-01T16:43:18;99220.28;;;6.91
48854;BMP280;34673;52.808;17.856;2023-04-01T16:46:12;99243.34;;;7.00
48854;BMP280;34673;52.808;17.856;2023-04-01T16:49:00;99245.03;;;7.00
48854;BMP280;34673;52.808;17.856;2023-04-01T16:59:36;99276.13;;;6.80
48854;BMP280;34673;52.808;17.856;2023-04-01T17:02:11;99277.03;;;6.73
48854;BMP280;34673;52.808;17.856;2023-04-01T17:05:00;99286.50;;;6.68
48854;BMP280;34673;52.808;17.856;2023-04-01T17:08:50;99289.16;;;6.58
48854;BMP280;34673;52.808;17.856;2023-04-01T17:13:40;99286.84;;;6.29
48854;BMP280;34673;52.808;17.856;2023-04-01T17:16:34;99306.47;;;6.35
48854;BMP280;34673;52.808;17.856;2023-04-01T17:27:40;99311.66;;;6.33
48854;BMP280;34673;52.808;17.856;2023-04-01T17:33:20;99327.03;;;6.35
48854;BMP280;34673;52.808;17.856;2023-04-01T17:39:07;99339.06;;;6.33
48854;BMP280;34673;52.808;17.856;2023-04-01T17:44:44;99341.59;;;6.34
48854;BMP280;34673;52.808;17.856;2023-04-01T17:47:24;99343.31;;;6.34
48854;BMP280;34673;52.808;17.856;2023-04-01T17:50:13;99345.94;;;6.21
48854;BMP280;34673;52.808;17.856;2023-04-01T17:55:43;99359.75;;;6.11
48854;BMP280;34673;52.808;17.856;2023-04-01T18:12:14;99390.63;;;5.87
48854;BMP280;34673;52.808;17.856;2023-04-01T18:14:59;99399.19;;;5.83
48854;BMP280;34673;52.808;17.856;2023-04-01T18:17:56;99406.06;;;5.77
48854;BMP280;34673;52.808;17.856;2023-04-01T18:20:49;99406.03;;;5.81
48854;BMP280;34673;52.808;17.856;2023-04-01T18:23:29;99414.59;;;5.83
48854;BMP280;34673;52.808;17.856;2023-04-01T18:26:05;99383.88;;;5.64
48854;BMP280;34673;52.808;17.856;2023-04-01T18:28:38;99421.44;;;5.84
48854;BMP280;34673;52.808;17.856;2023-04-01T18:31:15;99413.75;;;5.77
48854;BMP280;34673;52.808;17.856;2023-04-01T18:36:21;99440.25;;;5.86
48854;BMP280;34673;52.808;17.856;2023-04-01T18:39:15;99440.28;;;5.81
48854;BMP280;34673;52.808;17.856;2023-04-01T18:42:03;99442.81;;;5.78
48854;BMP280;34673;52.808;17.856;2023-04-01T18:48:33;99460.84;;;5.73
48854;BMP280;34673;52.808;17.856;2023-04-01T18:51:20;99465.97;;;5.73
48854;BMP280;34673;52.808;17.856;2023-04-01T18:53:57;99467.66;;;5.71
48854;BMP280;34673;52.808;17.856;2023-04-01T18:59:28;99473.69;;;5.58
48854;BMP280;34673;52.808;17.856;2023-04-01T19:02:07;99477.97;;;5.53
48854;BMP280;34673;52.808;17.856;2023-04-01T19:20:56;99495.09;;;5.23
48854;BMP280;34673;52.808;17.856;2023-04-01T19:26:37;99519.03;;;5.22
48854;BMP280;34673;52.808;17.856;2023-04-01T19:32:46;99525.88;;;5.22
48854;BMP280;34673;52.808;17.856;2023-04-01T19:38:01;99530.13;;;5.15
48854;BMP280;34673;52.808;17.856;2023-04-01T19:40:53;99535.25;;;5.09
48854;BMP280;34673;52.808;17.856;2023-04-01T19:49:12;99549.75;;;4.96
48854;BMP280;34673;52.808;17.856;2023-04-01T19:57:26;99563.47;;;5.03
48854;BMP280;34673;52.808;17.856;2023-04-01T20:08:21;99574.53;;;4.89
48854;BMP280;34673;52.808;17.856;2023-04-01T20:16:59;99582.22;;;4.86
48854;BMP280;34673;52.808;17.856;2023-04-01T20:19:41;99588.19;;;4.85
48854;BMP280;34673;52.808;17.856;2023-04-01T20:28:28;99597.59;;;4.83
48854;BMP280;34673;52.808;17.856;2023-04-01T20:48:34;99624.88;;;4.75
48854;BMP280;34673;52.808;17.856;2023-04-01T20:51:52;99624.91;;;4.81
48854;BMP280;34673;52.808;17.856;2023-04-01T20:57:05;99631.72;;;4.79
48854;BMP280;34673;52.808;17.856;2023-04-01T21:10:41;99645.31;;;4.63
48854;BMP280;34673;52.808;17.856;2023-04-01T21:26:59;99658.09;;;4.55
48854;BMP280;34673;52.808;17.856;2023-04-01T21:35:18;99659.78;;;4.52
48854;BMP280;34673;52.808;17.856;2023-04-01T22:00:19;99679.41;;;4.53
48854;BMP280;34673;52.808;17.856;2023-04-01T22:06:10;99687.06;;;4.47
48854;BMP280;34673;52.808;17.856;2023-04-01T22:09:21;99684.50;;;4.43
48854;BMP280;34673;52.808;17.856;2023-04-01T22:12:10;99688.75;;;4.43
48854;BMP280;34673;52.808;17.856;2023-04-01T22:14:43;99686.19;;;4.41
48854;BMP280;34673;52.808;17.856;2023-04-01T22:17:35;99693.00;;;4.39
48854;BMP280;34673;52.808;17.856;2023-04-01T22:20:25;99699.84;;;4.40
48854;BMP280;34673;52.808;17.856;2023-04-01T22:23:10;99701.50;;;4.35
48854;BMP280;34673;52.808;17.856;2023-04-01T22:29:02;99716.88;;;4.35
48854;BMP280;34673;52.808;17.856;2023-04-01T22:31:50;99711.78;;;4.41
48854;BMP280;34673;52.808;17.856;2023-04-01T22:34:33;99717.78;;;4.40
48854;BMP280;34673;52.808;17.856;2023-04-01T22:37:19;99722.88;;;4.42
48854;BMP280;34673;52.808;17.856;2023-04-01T22:42:56;99716.06;;;4.41
48854;BMP280;34673;52.808;17.856;2023-04-01T22:45:56;99730.59;;;4.47
48854;BMP280;34673;52.808;17.856;2023-04-01T22:48:48;99739.16;;;4.46
48854;BMP280;34673;52.808;17.856;2023-04-01T22:51:26;99735.72;;;4.47
48854;BMP280;34673;52.808;17.856;2023-04-01T22:56:44;99746.81;;;4.44
48854;BMP280;34673;52.808;17.856;2023-04-01T23:01:58;99739.97;;;4.43
48854;BMP280;34673;52.808;17.856;2023-04-01T23:04:32;99737.38;;;4.38
48854;BMP280;34673;52.808;17.856;2023-04-01T23:07:05;99751.06;;;4.43
48854;BMP280;34673;52.808;17.856;2023-04-01T23:09:43;99752.75;;;4.38
48854;BMP280;34673;52.808;17.856;2023-04-01T23:12:13;99760.47;;;4.44
48854;BMP280;34673;52.808;17.856;2023-04-01T23:14:47;99762.16;;;4.41
48854;BMP280;34673;52.808;17.856;2023-04-01T23:20:02;99770.72;;;4.46
48854;BMP280;34673;52.808;17.856;2023-04-01T23:22:59;99773.25;;;4.41
48854;BMP280;34673;52.808;17.856;2023-04-01T23:30:49;99781.81;;;4.43
48854;BMP280;34673;52.808;17.856;2023-04-01T23:36:11;99782.63;;;4.41
48854;BMP280;34673;52.808;17.856;2023-04-01T23:38:41;99780.03;;;4.36
48854;BMP280;34673;52.808;17.856;2023-04-01T23:41:17;99776.56;;;4.31
48854;BMP280;34673;52.808;17.856;2023-04-01T23:43:54;99791.13;;;4.37
48854;BMP280;34673;52.808;17.856;2023-04-01T23:46:22;99788.56;;;4.35
48854;BMP280;34673;52.808;17.856;2023-04-01T23:48:50;99796.28;;;4.38
48854;BMP280;34673;52.808;17.856;2023-04-01T23:51:26;99796.28;;;4.38
48854;BMP280;34673;52.808;17.856;2023-04-01T23:54:02;99797.16;;;4.40
48854;BMP280;34673;52.808;17.856;2023-04-01T23:56:44;99800.53;;;4.39
48854;BMP280;34673;52.808;17.856;2023-04-01T23:59:23;99791.19;;;4.40
